sensor_id;sensor_type;location;lat;lon;timestamp;temperature;humidity
12655;DHT22;6392;44.644;11.448;2023-09-30T00:00:08;19.30;99.90
12655;DHT22;6392;44.644;11.448;2023-09-30T00:02:35;19.30;99.90
12655;DHT22;6392;44.644;11.448;2023-09-30T00:05:03;19.30;99.90
12655;DHT22;6392;44.644;11.448;2023-09-30T00:07:30;19.30;99.90
12655;DHT22;6392;44.644;11.448;2023-09-30T00:09:57;19.30;99.90
12655;DHT22;6392;44.644;11.448;2023-09-30T00:12:26;19.30;99.90
12655;DHT22;6392;44.644;11.448;2023-09-30T00:14:53;19.20;99.90
12655;DHT22;6392;44.644;11.448;2023-09-30T00:17:20;19.20;99.90
12655;DHT22;6392;44.644;11.448;2023-09-30T00:19:47;19.20;99.90
12655;DHT22;6392;44.644;11.448;2023-09-30T00:22:14;19.20;99.90
12655;DHT22;6392;44.644;11.448;2023-09-30T00:24:41;19.20;99.90
12655;DHT22;6392;44.644;11.448;2023-09-30T00:27:08;19.10;99.90
12655;DHT22;6392;44.644;11.448;2023-09-30T00:29:36;19.10;99.90
12655;DHT22;6392;44.644;11.448;2023-09-30T00:32:04;19.00;99.90
12655;DHT22;6392;44.644;11.448;2023-09-30T00:34:33;18.90;99.90
12655;DHT22;6392;44.644;11.448;2023-09-30T00:37:00;18.90;99.90
12655;DHT22;6392;44.644;11.448;2023-09-30T00:39:27;18.80;99.90
12655;DHT22;6392;44.644;11.448;2023-09-30T00:41:56;18.80;99.90
12655;DHT22;6392;44.644;11.448;2023-09-30T00:44:24;18.70;99.90
12655;DHT22;6392;44.644;11.448;2023-09-30T00:46:54;18.60;99.90
12655;DHT22;6392;44.644;11.448;2023-09-30T00:49:22;18.60;99.90
12655;DHT22;6392;44.644;11.448;2023-09-30T00:51:50;18.50;99.90
12655;DHT22;6392;44.644;11.448;2023-09-30T00:54:18;18.50;99.90
12655;DHT22;6392;44.644;11.448;2023-09-30T00:56:46;18.40;99.90
12655;DHT22;6392;44.644;11.448;2023-09-30T00:59:14;18.40;99.90
12655;DHT22;6392;44.644;11.448;2023-09-30T01:01:41;18.40;99.90
12655;DHT22;6392;44.644;11.448;2023-09-30T01:04:11;18.40;99.90
12655;DHT22;6392;44.644;11.448;2023-09-30T01:06:38;18.40;99.90
12655;DHT22;6392;44.644;11.448;2023-09-30T01:09:06;18.30;99.90
12655;DHT22;6392;44.644;11.448;2023-09-30T01:11:34;18.40;99.90
12655;DHT22;6392;44.644;11.448;2023-09-30T01:14:01;18.40;99.90
12655;DHT22;6392;44.644;11.448;2023-09-30T01:16:28;18.30;99.90
12655;DHT22;6392;44.644;11.448;2023-09-30T01:18:55;18.30;99.90
12655;DHT22;6392;44.644;11.448;2023-09-30T01:21:25;18.30;99.90
12655;DHT22;6392;44.644;11.448;2023-09-30T01:23:54;18.20;99.90
12655;DHT22;6392;44.644;11.448;2023-09-30T01:26:21;18.20;99.90
12655;DHT22;6392;44.644;11.448;2023-09-30T01:28:49;18.20;99.90
12655;DHT22;6392;44.644;11.448;2023-09-30T01:31:16;18.20;99.90
12655;DHT22;6392;44.644;11.448;2023-09-30T01:33:43;18.20;99.90
12655;DHT22;6392;44.644;11.448;2023-09-30T01:36:10;18.20;99.90
12655;DHT22;6392;44.644;11.448;2023-09-30T01:38:37;18.20;99.90
12655;DHT22;6392;44.644;11.448;2023-09-30T01:41:06;18.20;99.90
12655;DHT22;6392;44.644;11.448;2023-09-30T01:43:33;18.20;99.90
12655;DHT22;6392;44.644;11.448;2023-09-30T01:46:02;18.20;99.90
12655;DHT22;6392;44.644;11.448;2023-09-30T01:48:30;18.20;99.90
12655;DHT22;6392;44.644;11.448;2023-09-30T01:50:57;18.20;99.90
12655;DHT22;6392;44.644;11.448;2023-09-30T01:53:24;18.20;99.90
12655;DHT22;6392;44.644;11.448;2023-09-30T01:55:51;18.20;99.90
12655;DHT22;6392;44.644;11.448;2023-09-30T01:58:19;18.20;99.90
12655;DHT22;6392;44.644;11.448;2023-09-30T02:00:46;18.20;99.90
12655;DHT22;6392;44.644;11.448;2023-09-30T02:03:13;18.10;99.90
12655;DHT22;6392;44.644;11.448;2023-09-30T02:05:40;18.10;99.90
12655;DHT22;6392;44.644;11.448;2023-09-30T02:08:07;18.10;99.90
12655;DHT22;6392;44.644;11.448;2023-09-30T02:10:34;18.00;99.90
12655;DHT22;6392;44.644;11.448;2023-09-30T02:13:02;18.00;99.90
12655;DHT22;6392;44.644;11.448;2023-09-30T02:15:33;18.00;99.90
12655;DHT22;6392;44.644;11.448;2023-09-30T02:18:00;18.00;99.90
12655;DHT22;6392;44.644;11.448;2023-09-30T02:20:29;18.00;99.90
12655;DHT22;6392;44.644;11.448;2023-09-30T02:22:56;18.00;99.90
12655;DHT22;6392;44.644;11.448;2023-09-30T02:25:24;17.90;99.90
12655;DHT22;6392;44.644;11.448;2023-09-30T02:27:51;17.90;99.90
12655;DHT22;6392;44.644;11.448;2023-09-30T02:30:18;17.80;99.90
12655;DHT22;6392;44.644;11.448;2023-09-30T02:32:48;17.80;99.90
12655;DHT22;6392;44.644;11.448;2023-09-30T02:35:15;17.80;99.90
12655;DHT22;6392;44.644;11.448;2023-09-30T02:37:41;17.80;99.90
12655;DHT22;6392;44.644;11.448;2023-09-30T02:40:09;17.80;99.90
12655;DHT22;6392;44.644;11.448;2023-09-30T02:42:36;17.80;99.90
12655;DHT22;6392;44.644;11.448;2023-09-30T02:45:04;17.70;99.90
12655;DHT22;6392;44.644;11.448;2023-09-30T02:47:32;17.70;99.90
12655;DHT22;6392;44.644;11.448;2023-09-30T02:50:01;17.60;99.90
12655;DHT22;6392;44.644;11.448;2023-09-30T02:52:28;17.50;99.90
12655;DHT22;6392;44.644;11.448;2023-09-30T02:54:55;17.50;99.90
12655;DHT22;6392;44.644;11.448;2023-09-30T02:57:23;17.40;99.90
12655;DHT22;6392;44.644;11.448;2023-09-30T02:59:51;17.40;99.90
12655;DHT22;6392;44.644;11.448;2023-09-30T03:02:19;17.40;99.90
12655;DHT22;6392;44.644;11.448;2023-09-30T03:04:46;17.40;99.90
12655;DHT22;6392;44.644;11.448;2023-09-30T03:07:18;17.40;99.90
12655;DHT22;6392;44.644;11.448;2023-09-30T03:09:45;17.40;99.90
12655;DHT22;6392;44.644;11.448;2023-09-30T03:12:12;17.30;99.90
12655;DHT22;6392;44.644;11.448;2023-09-30T03:14:39;17.30;99.90
12655;DHT22;6392;44.644;11.448;2023-09-30T03:17:06;17.20;99.90
12655;DHT22;6392;44.644;11.448;2023-09-30T03:19:37;17.20;99.90
12655;DHT22;6392;44.644;11.448;2023-09-30T03:22:04;17.20;99.90
12655;DHT22;6392;44.644;11.448;2023-09-30T03:24:33;17.20;99.90
12655;DHT22;6392;44.644;11.448;2023-09-30T03:27:00;17.30;99.90
12655;DHT22;6392;44.644;11.448;2023-09-30T03:29:27;17.30;99.90
12655;DHT22;6392;44.644;11.448;2023-09-30T03:31:54;17.30;99.90
12655;DHT22;6392;44.644;11.448;2023-09-30T03:34:22;17.30;99.90
12655;DHT22;6392;44.644;11.448;2023-09-30T03:36:49;17.30;99.90
12655;DHT22;6392;44.644;11.448;2023-09-30T03:39:16;17.30;99.90
12655;DHT22;6392;44.644;11.448;2023-09-30T03:41:54;17.30;99.90
12655;DHT22;6392;44.644;11.448;2023-09-30T03:44:21;17.30;99.90
12655;DHT22;6392;44.644;11.448;2023-09-30T03:46:50;17.30;99.90
12655;DHT22;6392;44.644;11.448;2023-09-30T03:49:17;17.30;99.90
12655;DHT22;6392;44.644;11.448;2023-09-30T03:51:45;17.20;99.90
12655;DHT22;6392;44.644;11.448;2023-09-30T03:54:12;17.20;99.90
12655;DHT22;6392;44.644;11.448;2023-09-30T03:56:39;17.20;99.90
12655;DHT22;6392;44.644;11.448;2023-09-30T03:59:08;17.10;99.90
12655;DHT22;6392;44.644;11.448;2023-09-30T04:01:35;17.10;99.90
12655;DHT22;6392;44.644;11.448;2023-09-30T04:04:06;17.10;99.90
12655;DHT22;6392;44.644;11.448;2023-09-30T04:06:35;17.10;99.90
12655;DHT22;6392;44.644;11.448;2023-09-30T04:09:04;17.10;99.90
12655;DHT22;6392;44.644;11.448;2023-09-30T04:11:35;17.10;99.90
12655;DHT22;6392;44.644;11.448;2023-09-30T04:14:03;17.10;99.90
12655;DHT22;6392;44.644;11.448;2023-09-30T04:16:32;17.20;99.90
12655;DHT22;6392;44.644;11.448;2023-09-30T04:18:59;17.20;99.90
12655;DHT22;6392;44.644;11.448;2023-09-30T04:21:26;17.20;99.90
12655;DHT22;6392;44.644;11.448;2023-09-30T04:23:55;17.10;99.90
12655;DHT22;6392;44.644;11.448;2023-09-30T04:26:22;17.10;99.90
12655;DHT22;6392;44.644;11.448;2023-09-30T04:28:50;17.00;99.90
12655;DHT22;6392;44.644;11.448;2023-09-30T04:31:18;17.00;99.90
12655;DHT22;6392;44.644;11.448;2023-09-30T04:33:48;17.00;99.90
12655;DHT22;6392;44.644;11.448;2023-09-30T04:36:16;17.00;99.90
12655;DHT22;6392;44.644;11.448;2023-09-30T04:38:43;16.90;99.90
12655;DHT22;6392;44.644;11.448;2023-09-30T04:41:10;16.90;99.90
12655;DHT22;6392;44.644;11.448;2023-09-30T04:43:38;16.90;99.90
12655;DHT22;6392;44.644;11.448;2023-09-30T04:46:06;16.90;99.90
12655;DHT22;6392;44.644;11.448;2023-09-30T04:48:34;16.80;99.90
12655;DHT22;6392;44.644;11.448;2023-09-30T04:51:06;16.90;99.90
12655;DHT22;6392;44.644;11.448;2023-09-30T04:53:33;16.90;99.90
12655;DHT22;6392;44.644;11.448;2023-09-30T04:56:00;16.90;99.90
12655;DHT22;6392;44.644;11.448;2023-09-30T04:58:28;16.90;99.90
12655;DHT22;6392;44.644;11.448;2023-09-30T05:00:57;16.90;99.90
12655;DHT22;6392;44.644;11.448;2023-09-30T05:03:24;16.90;99.90
12655;DHT22;6392;44.644;11.448;2023-09-30T05:05:51;16.80;99.90
12655;DHT22;6392;44.644;11.448;2023-09-30T05:08:22;16.80;99.90
12655;DHT22;6392;44.644;11.448;2023-09-30T05:10:49;16.80;99.90
12655;DHT22;6392;44.644;11.448;2023-09-30T05:13:16;16.80;99.90
12655;DHT22;6392;44.644;11.448;2023-09-30T05:15:44;16.80;99.90
12655;DHT22;6392;44.644;11.448;2023-09-30T05:18:12;16.80;99.90
12655;DHT22;6392;44.644;11.448;2023-09-30T05:20:39;16.80;99.90
12655;DHT22;6392;44.644;11.448;2023-09-30T05:23:06;16.70;99.90
12655;DHT22;6392;44.644;11.448;2023-09-30T05:25:35;16.80;99.90
12655;DHT22;6392;44.644;11.448;2023-09-30T05:28:03;16.80;99.90
12655;DHT22;6392;44.644;11.448;2023-09-30T05:30:31;16.80;99.90
12655;DHT22;6392;44.644;11.448;2023-09-30T05:32:58;16.80;99.90
12655;DHT22;6392;44.644;11.448;2023-09-30T05:35:25;16.80;99.90
12655;DHT22;6392;44.644;11.448;2023-09-30T05:37:53;16.80;99.90
12655;DHT22;6392;44.644;11.448;2023-09-30T05:40:21;16.90;99.90
12655;DHT22;6392;44.644;11.448;2023-09-30T05:42:52;16.90;99.90
12655;DHT22;6392;44.644;11.448;2023-09-30T05:45:19;16.90;99.90
12655;DHT22;6392;44.644;11.448;2023-09-30T05:47:47;16.90;99.90
12655;DHT22;6392;44.644;11.448;2023-09-30T05:50:14;16.90;99.90
12655;DHT22;6392;44.644;11.448;2023-09-30T05:52:42;16.90;99.90
12655;DHT22;6392;44.644;11.448;2023-09-30T05:55:10;17.00;99.90
12655;DHT22;6392;44.644;11.448;2023-09-30T05:57:37;17.00;99.90
12655;DHT22;6392;44.644;11.448;2023-09-30T06:00:07;17.00;99.90
12655;DHT22;6392;44.644;11.448;2023-09-30T06:02:54;17.00;99.90
12655;DHT22;6392;44.644;11.448;2023-09-30T06:05:21;17.00;99.90
12655;DHT22;6392;44.644;11.448;2023-09-30T06:07:49;17.10;99.90
12655;DHT22;6392;44.644;11.448;2023-09-30T06:10:16;17.10;99.90
12655;DHT22;6392;44.644;11.448;2023-09-30T06:12:45;17.10;99.90
12655;DHT22;6392;44.644;11.448;2023-09-30T06:15:15;17.10;99.90
12655;DHT22;6392;44.644;11.448;2023-09-30T06:17:47;17.20;99.90
12655;DHT22;6392;44.644;11.448;2023-09-30T06:20:14;17.20;99.90
12655;DHT22;6392;44.644;11.448;2023-09-30T06:22:43;17.30;99.90
12655;DHT22;6392;44.644;11.448;2023-09-30T06:25:11;17.30;99.90
12655;DHT22;6392;44.644;11.448;2023-09-30T06:27:39;17.30;99.90
12655;DHT22;6392;44.644;11.448;2023-09-30T06:30:07;17.30;99.90
12655;DHT22;6392;44.644;11.448;2023-09-30T06:32:36;17.30;99.90
12655;DHT22;6392;44.644;11.448;2023-09-30T06:35:04;17.40;99.90
12655;DHT22;6392;44.644;11.448;2023-09-30T06:37:34;17.40;99.90
12655;DHT22;6392;44.644;11.448;2023-09-30T06:40:01;17.40;99.90
12655;DHT22;6392;44.644;11.448;2023-09-30T06:42:30;17.30;99.90
12655;DHT22;6392;44.644;11.448;2023-09-30T06:44:57;17.30;99.90
12655;DHT22;6392;44.644;11.448;2023-09-30T06:47:24;17.40;99.90
12655;DHT22;6392;44.644;11.448;2023-09-30T06:49:52;17.40;99.90
12655;DHT22;6392;44.644;11.448;2023-09-30T06:52:19;17.50;99.90
12655;DHT22;6392;44.644;11.448;2023-09-30T06:54:46;17.50;99.90
12655;DHT22;6392;44.644;11.448;2023-09-30T06:57:13;17.60;99.90
12655;DHT22;6392;44.644;11.448;2023-09-30T06:59:40;17.60;99.90
12655;DHT22;6392;44.644;11.448;2023-09-30T07:02:07;17.70;99.90
12655;DHT22;6392;44.644;11.448;2023-09-30T07:04:34;17.80;99.90
12655;DHT22;6392;44.644;11.448;2023-09-30T07:07:02;17.90;99.90
12655;DHT22;6392;44.644;11.448;2023-09-30T07:09:29;18.00;99.90
12655;DHT22;6392;44.644;11.448;2023-09-30T07:11:56;18.20;99.90
12655;DHT22;6392;44.644;11.448;2023-09-30T07:14:23;18.40;99.90
12655;DHT22;6392;44.644;11.448;2023-09-30T07:16:50;18.50;99.90
12655;DHT22;6392;44.644;11.448;2023-09-30T07:19:17;18.50;99.90
12655;DHT22;6392;44.644;11.448;2023-09-30T07:21:44;18.60;99.90
12655;DHT22;6392;44.644;11.448;2023-09-30T07:24:13;18.70;99.90
12655;DHT22;6392;44.644;11.448;2023-09-30T07:26:40;18.80;99.90
12655;DHT22;6392;44.644;11.448;2023-09-30T07:29:09;18.80;99.90
12655;DHT22;6392;44.644;11.448;2023-09-30T07:31:36;18.90;99.90
12655;DHT22;6392;44.644;11.448;2023-09-30T07:34:03;19.00;99.90
12655;DHT22;6392;44.644;11.448;2023-09-30T07:36:32;19.10;99.90
12655;DHT22;6392;44.644;11.448;2023-09-30T07:38:59;19.20;99.90
12655;DHT22;6392;44.644;11.448;2023-09-30T07:41:28;19.30;99.90
12655;DHT22;6392;44.644;11.448;2023-09-30T07:44:00;19.40;99.90
12655;DHT22;6392;44.644;11.448;2023-09-30T07:46:28;19.50;99.90
12655;DHT22;6392;44.644;11.448;2023-09-30T07:48:56;19.50;99.90
12655;DHT22;6392;44.644;11.448;2023-09-30T07:51:24;19.60;99.90
12655;DHT22;6392;44.644;11.448;2023-09-30T07:53:51;19.70;99.90
12655;DHT22;6392;44.644;11.448;2023-09-30T07:56:19;19.70;99.90
12655;DHT22;6392;44.644;11.448;2023-09-30T07:58:48;19.80;99.90
12655;DHT22;6392;44.644;11.448;2023-09-30T08:01:16;19.80;99.90
12655;DHT22;6392;44.644;11.448;2023-09-30T08:03:43;19.90;99.90
12655;DHT22;6392;44.644;11.448;2023-09-30T08:06:10;20.00;99.90
12655;DHT22;6392;44.644;11.448;2023-09-30T08:08:38;20.10;99.90
12655;DHT22;6392;44.644;11.448;2023-09-30T08:11:05;20.10;99.90
12655;DHT22;6392;44.644;11.448;2023-09-30T08:13:32;20.20;99.90
12655;DHT22;6392;44.644;11.448;2023-09-30T08:16:01;20.30;99.90
12655;DHT22;6392;44.644;11.448;2023-09-30T08:18:28;20.40;99.90
12655;DHT22;6392;44.644;11.448;2023-09-30T08:20:54;20.40;99.90
12655;DHT22;6392;44.644;11.448;2023-09-30T08:23:21;20.50;99.90
12655;DHT22;6392;44.644;11.448;2023-09-30T08:25:48;20.50;99.90
12655;DHT22;6392;44.644;11.448;2023-09-30T08:28:15;20.60;99.90
12655;DHT22;6392;44.644;11.448;2023-09-30T08:30:43;20.60;99.90
12655;DHT22;6392;44.644;11.448;2023-09-30T08:33:11;20.70;99.90
12655;DHT22;6392;44.644;11.448;2023-09-30T08:35:38;20.70;99.90
12655;DHT22;6392;44.644;11.448;2023-09-30T08:38:05;20.80;99.90
12655;DHT22;6392;44.644;11.448;2023-09-30T08:40:32;20.90;99.90
12655;DHT22;6392;44.644;11.448;2023-09-30T08:42:59;20.90;99.90
12655;DHT22;6392;44.644;11.448;2023-09-30T08:45:32;21.00;99.90
12655;DHT22;6392;44.644;11.448;2023-09-30T08:48:00;21.00;99.90
12655;DHT22;6392;44.644;11.448;2023-09-30T08:50:34;21.10;99.90
12655;DHT22;6392;44.644;11.448;2023-09-30T08:53:02;21.10;99.90
12655;DHT22;6392;44.644;11.448;2023-09-30T08:55:32;21.20;99.90
12655;DHT22;6392;44.644;11.448;2023-09-30T08:58:03;21.20;99.90
12655;DHT22;6392;44.644;11.448;2023-09-30T09:00:30;21.30;99.90
12655;DHT22;6392;44.644;11.448;2023-09-30T09:02:57;21.30;99.90
12655;DHT22;6392;44.644;11.448;2023-09-30T09:05:24;21.30;99.90
12655;DHT22;6392;44.644;11.448;2023-09-30T09:07:52;21.40;99.90
12655;DHT22;6392;44.644;11.448;2023-09-30T09:10:19;21.50;99.90
12655;DHT22;6392;44.644;11.448;2023-09-30T09:12:55;21.50;99.90
12655;DHT22;6392;44.644;11.448;2023-09-30T09:15:24;21.60;99.90
12655;DHT22;6392;44.644;11.448;2023-09-30T09:17:51;21.60;99.90
12655;DHT22;6392;44.644;11.448;2023-09-30T09:20:20;21.60;99.90
12655;DHT22;6392;44.644;11.448;2023-09-30T09:22:49;21.70;99.90
12655;DHT22;6392;44.644;11.448;2023-09-30T09:25:20;21.80;99.90
12655;DHT22;6392;44.644;11.448;2023-09-30T09:27:49;21.80;99.90
12655;DHT22;6392;44.644;11.448;2023-09-30T09:30:17;21.80;99.90
12655;DHT22;6392;44.644;11.448;2023-09-30T09:33:00;21.80;99.90
12655;DHT22;6392;44.644;11.448;2023-09-30T09:35:29;21.90;99.90
12655;DHT22;6392;44.644;11.448;2023-09-30T09:37:58;22.00;99.90
12655;DHT22;6392;44.644;11.448;2023-09-30T09:40:28;22.00;99.90
12655;DHT22;6392;44.644;11.448;2023-09-30T09:42:57;22.00;99.90
12655;DHT22;6392;44.644;11.448;2023-09-30T09:45:26;22.10;99.90
12655;DHT22;6392;44.644;11.448;2023-09-30T09:47:54;22.10;99.90
12655;DHT22;6392;44.644;11.448;2023-09-30T09:50:23;22.10;99.90
12655;DHT22;6392;44.644;11.448;2023-09-30T09:52:51;22.10;99.90
12655;DHT22;6392;44.644;11.448;2023-09-30T09:55:21;22.10;99.90
12655;DHT22;6392;44.644;11.448;2023-09-30T09:57:50;22.10;99.90
12655;DHT22;6392;44.644;11.448;2023-09-30T10:00:20;22.10;99.90
12655;DHT22;6392;44.644;11.448;2023-09-30T10:02:48;22.10;99.90
12655;DHT22;6392;44.644;11.448;2023-09-30T10:05:17;22.10;99.90
12655;DHT22;6392;44.644;11.448;2023-09-30T10:07:52;22.30;99.90
12655;DHT22;6392;44.644;11.448;2023-09-30T10:10:23;22.30;99.90
12655;DHT22;6392;44.644;11.448;2023-09-30T10:12:53;22.30;99.90
12655;DHT22;6392;44.644;11.448;2023-09-30T10:15:38;22.30;99.90
12655;DHT22;6392;44.644;11.448;2023-09-30T10:18:09;22.30;99.90
12655;DHT22;6392;44.644;11.448;2023-09-30T10:20:39;22.40;99.90
12655;DHT22;6392;44.644;11.448;2023-09-30T10:23:24;22.40;99.90
12655;DHT22;6392;44.644;11.448;2023-09-30T10:25:54;22.40;99.90
12655;DHT22;6392;44.644;11.448;2023-09-30T10:28:38;22.40;99.90
12655;DHT22;6392;44.644;11.448;2023-09-30T10:31:14;22.40;99.90
12655;DHT22;6392;44.644;11.448;2023-09-30T10:34:18;22.30;99.90
12655;DHT22;6392;44.644;11.448;2023-09-30T10:36:46;22.30;99.90
12655;DHT22;6392;44.644;11.448;2023-09-30T10:39:53;22.30;99.90
12655;DHT22;6392;44.644;11.448;2023-09-30T10:42:45;22.40;99.90
12655;DHT22;6392;44.644;11.448;2023-09-30T10:45:43;22.50;99.90
12655;DHT22;6392;44.644;11.448;2023-09-30T10:48:36;22.50;99.90
12655;DHT22;6392;44.644;11.448;2023-09-30T10:51:16;22.60;99.90
12655;DHT22;6392;44.644;11.448;2023-09-30T10:53:50;22.60;99.90
12655;DHT22;6392;44.644;11.448;2023-09-30T10:56:22;22.60;99.90
12655;DHT22;6392;44.644;11.448;2023-09-30T10:58:52;22.80;99.90
12655;DHT22;6392;44.644;11.448;2023-09-30T11:01:23;23.00;99.90
12655;DHT22;6392;44.644;11.448;2023-09-30T11:03:58;23.10;99.90
12655;DHT22;6392;44.644;11.448;2023-09-30T11:06:29;23.30;99.90
12655;DHT22;6392;44.644;11.448;2023-09-30T11:08:57;23.50;99.90
12655;DHT22;6392;44.644;11.448;2023-09-30T11:11:36;23.60;99.90
12655;DHT22;6392;44.644;11.448;2023-09-30T11:14:03;23.60;99.90
12655;DHT22;6392;44.644;11.448;2023-09-30T11:16:43;23.60;99.90
12655;DHT22;6392;44.644;11.448;2023-09-30T11:19:11;23.60;99.90
12655;DHT22;6392;44.644;11.448;2023-09-30T11:21:38;23.70;99.90
12655;DHT22;6392;44.644;11.448;2023-09-30T11:24:07;23.80;99.90
12655;DHT22;6392;44.644;11.448;2023-09-30T11:26:34;23.80;99.90
12655;DHT22;6392;44.644;11.448;2023-09-30T11:29:05;23.60;99.90
12655;DHT22;6392;44.644;11.448;2023-09-30T11:31:33;23.50;99.90
12655;DHT22;6392;44.644;11.448;2023-09-30T11:34:02;23.60;99.90
12655;DHT22;6392;44.644;11.448;2023-09-30T11:36:31;23.70;99.90
12655;DHT22;6392;44.644;11.448;2023-09-30T11:38:58;23.80;99.90
12655;DHT22;6392;44.644;11.448;2023-09-30T11:41:35;23.90;99.90
12655;DHT22;6392;44.644;11.448;2023-09-30T11:44:05;24.00;99.90
12655;DHT22;6392;44.644;11.448;2023-09-30T11:46:49;24.00;99.90
12655;DHT22;6392;44.644;11.448;2023-09-30T11:49:27;23.90;99.90
12655;DHT22;6392;44.644;11.448;2023-09-30T11:51:56;23.90;99.90
12655;DHT22;6392;44.644;11.448;2023-09-30T11:54:31;23.90;99.90
12655;DHT22;6392;44.644;11.448;2023-09-30T11:57:03;24.00;99.90
12655;DHT22;6392;44.644;11.448;2023-09-30T11:59:31;24.10;99.90
12655;DHT22;6392;44.644;11.448;2023-09-30T12:02:02;24.10;99.90
12655;DHT22;6392;44.644;11.448;2023-09-30T12:04:36;24.00;99.90
12655;DHT22;6392;44.644;11.448;2023-09-30T12:07:04;24.00;99.90
12655;DHT22;6392;44.644;11.448;2023-09-30T12:09:33;24.20;99.90
12655;DHT22;6392;44.644;11.448;2023-09-30T12:12:07;24.40;99.90
12655;DHT22;6392;44.644;11.448;2023-09-30T12:14:35;24.30;99.90
12655;DHT22;6392;44.644;11.448;2023-09-30T12:17:09;24.30;99.90
12655;DHT22;6392;44.644;11.448;2023-09-30T12:19:39;24.30;99.90
12655;DHT22;6392;44.644;11.448;2023-09-30T12:22:07;24.30;99.90
12655;DHT22;6392;44.644;11.448;2023-09-30T12:24:39;24.30;99.90
12655;DHT22;6392;44.644;11.448;2023-09-30T12:27:09;24.30;99.90
12655;DHT22;6392;44.644;11.448;2023-09-30T12:29:36;24.30;99.90
12655;DHT22;6392;44.644;11.448;2023-09-30T12:32:05;24.30;99.90
12655;DHT22;6392;44.644;11.448;2023-09-30T12:34:34;24.30;99.90
12655;DHT22;6392;44.644;11.448;2023-09-30T12:37:03;24.30;99.90
12655;DHT22;6392;44.644;11.448;2023-09-30T12:39:31;24.30;99.90
12655;DHT22;6392;44.644;11.448;2023-09-30T12:41:59;24.20;99.90
12655;DHT22;6392;44.644;11.448;2023-09-30T12:44:26;24.30;99.90
12655;DHT22;6392;44.644;11.448;2023-09-30T12:46:53;24.30;99.90
12655;DHT22;6392;44.644;11.448;2023-09-30T12:49:25;24.30;99.90
12655;DHT22;6392;44.644;11.448;2023-09-30T12:51:53;24.30;99.90
12655;DHT22;6392;44.644;11.448;2023-09-30T12:54:24;24.50;99.90
12655;DHT22;6392;44.644;11.448;2023-09-30T12:56:51;24.70;99.90
12655;DHT22;6392;44.644;11.448;2023-09-30T12:59:19;24.80;99.90
12655;DHT22;6392;44.644;11.448;2023-09-30T13:01:50;24.80;99.90
12655;DHT22;6392;44.644;11.448;2023-09-30T13:04:19;24.80;99.90
12655;DHT22;6392;44.644;11.448;2023-09-30T13:06:46;24.80;99.90
12655;DHT22;6392;44.644;11.448;2023-09-30T13:09:17;24.80;99.90
12655;DHT22;6392;44.644;11.448;2023-09-30T13:11:47;24.90;99.90
12655;DHT22;6392;44.644;11.448;2023-09-30T13:14:15;25.00;99.90
12655;DHT22;6392;44.644;11.448;2023-09-30T13:16:44;25.30;99.90
12655;DHT22;6392;44.644;11.448;2023-09-30T13:19:12;25.80;99.90
12655;DHT22;6392;44.644;11.448;2023-09-30T13:21:41;26.30;99.90
12655;DHT22;6392;44.644;11.448;2023-09-30T13:24:09;26.50;99.90
12655;DHT22;6392;44.644;11.448;2023-09-30T13:26:37;26.50;99.90
12655;DHT22;6392;44.644;11.448;2023-09-30T13:29:05;26.50;99.90
12655;DHT22;6392;44.644;11.448;2023-09-30T13:31:35;26.30;99.90
12655;DHT22;6392;44.644;11.448;2023-09-30T13:34:03;26.20;99.90
12655;DHT22;6392;44.644;11.448;2023-09-30T13:36:30;26.00;99.90
12655;DHT22;6392;44.644;11.448;2023-09-30T13:38:58;25.90;99.90
12655;DHT22;6392;44.644;11.448;2023-09-30T13:41:27;25.90;99.90
12655;DHT22;6392;44.644;11.448;2023-09-30T13:43:57;26.00;99.90
12655;DHT22;6392;44.644;11.448;2023-09-30T13:46:26;26.10;99.90
12655;DHT22;6392;44.644;11.448;2023-09-30T13:48:55;26.50;99.90
12655;DHT22;6392;44.644;11.448;2023-09-30T13:51:23;26.70;99.90
12655;DHT22;6392;44.644;11.448;2023-09-30T13:53:54;26.80;99.90
12655;DHT22;6392;44.644;11.448;2023-09-30T13:56:22;26.80;99.90
12655;DHT22;6392;44.644;11.448;2023-09-30T13:58:50;26.80;99.90
12655;DHT22;6392;44.644;11.448;2023-09-30T14:01:19;26.80;99.90
12655;DHT22;6392;44.644;11.448;2023-09-30T14:03:50;27.00;99.90
12655;DHT22;6392;44.644;11.448;2023-09-30T14:06:21;27.30;99.90
12655;DHT22;6392;44.644;11.448;2023-09-30T14:08:49;27.40;99.90
12655;DHT22;6392;44.644;11.448;2023-09-30T14:11:19;27.60;99.90
12655;DHT22;6392;44.644;11.448;2023-09-30T14:13:47;27.70;99.90
12655;DHT22;6392;44.644;11.448;2023-09-30T14:16:15;27.90;99.90
12655;DHT22;6392;44.644;11.448;2023-09-30T14:18:43;28.00;99.90
12655;DHT22;6392;44.644;11.448;2023-09-30T14:21:12;27.80;99.90
12655;DHT22;6392;44.644;11.448;2023-09-30T14:23:50;27.60;99.90
12655;DHT22;6392;44.644;11.448;2023-09-30T14:26:18;27.40;99.90
12655;DHT22;6392;44.644;11.448;2023-09-30T14:28:50;27.40;99.90
12655;DHT22;6392;44.644;11.448;2023-09-30T14:31:28;27.30;99.90
12655;DHT22;6392;44.644;11.448;2023-09-30T14:34:01;27.30;99.90
12655;DHT22;6392;44.644;11.448;2023-09-30T14:36:54;27.10;99.90
12655;DHT22;6392;44.644;11.448;2023-09-30T14:39:24;27.00;99.90
12655;DHT22;6392;44.644;11.448;2023-09-30T14:41:56;26.90;99.90
12655;DHT22;6392;44.644;11.448;2023-09-30T14:44:37;26.90;99.90
12655;DHT22;6392;44.644;11.448;2023-09-30T14:47:05;26.80;99.90
12655;DHT22;6392;44.644;11.448;2023-09-30T14:49:37;26.70;99.90
12655;DHT22;6392;44.644;11.448;2023-09-30T14:52:07;26.50;99.90
12655;DHT22;6392;44.644;11.448;2023-09-30T14:54:39;26.40;99.90
12655;DHT22;6392;44.644;11.448;2023-09-30T14:57:06;26.30;99.90
12655;DHT22;6392;44.644;11.448;2023-09-30T14:59:42;26.10;99.90
12655;DHT22;6392;44.644;11.448;2023-09-30T15:02:14;25.90;99.90
12655;DHT22;6392;44.644;11.448;2023-09-30T15:04:44;25.90;99.90
12655;DHT22;6392;44.644;11.448;2023-09-30T15:07:13;25.70;99.90
12655;DHT22;6392;44.644;11.448;2023-09-30T15:09:48;25.80;99.90
12655;DHT22;6392;44.644;11.448;2023-09-30T15:12:17;25.80;99.90
12655;DHT22;6392;44.644;11.448;2023-09-30T15:14:50;25.80;99.90
12655;DHT22;6392;44.644;11.448;2023-09-30T15:17:24;25.80;99.90
12655;DHT22;6392;44.644;11.448;2023-09-30T15:19:51;25.80;99.90
12655;DHT22;6392;44.644;11.448;2023-09-30T15:22:24;25.70;99.90
12655;DHT22;6392;44.644;11.448;2023-09-30T15:25:01;25.70;99.90
12655;DHT22;6392;44.644;11.448;2023-09-30T15:27:31;25.70;99.90
12655;DHT22;6392;44.644;11.448;2023-09-30T15:30:07;25.70;99.90
12655;DHT22;6392;44.644;11.448;2023-09-30T15:32:35;25.70;99.90
12655;DHT22;6392;44.644;11.448;2023-09-30T15:35:11;25.70;99.90
12655;DHT22;6392;44.644;11.448;2023-09-30T15:37:43;25.80;99.90
12655;DHT22;6392;44.644;11.448;2023-09-30T15:40:30;25.80;99.90
12655;DHT22;6392;44.644;11.448;2023-09-30T15:43:00;25.90;99.90